Woodstock, VT

3:40 PM EST on November 24, 2014 (GMT -0500)
Suicide Six Ski Area | Change Station
CLOSE
Current Station
Personal Weather Station
Location: South Pomfret, VT
Elevation: 850 ft
Nearby Weather Stations
Active Advisory: Winter Storm Watch

Elev 850 ft 43.68 °N, 72.56 °W | Updated 0 second ago

Overcast
Overcast
58.1 °F
Feels Like 58.1 °F
N
1.0
Wind Variable Wind from South
Gusts 6.0 mph

Today
High -- | Low -- °F
--% Chance of Precip.
Yesterday
High -- | Low -- °F
Precip. -- in
6:55 AM 4:17 PM
Waxing Crescent, 7% visible
Pressure 29.47 in
Visibility 10.0 miles
Clouds Few 1700 ft
Scattered Clouds 2300 ft
Mostly Cloudy 3700 ft
Dew Point 56 °F
Humidity 93%
Rainfall 0.38 in
Snow Depth Not available.
UV 0 out of 12
Pollen .10 out of 12
Air Quality Not available.
Flu Activity Not available.
METAR KLEB 241953Z 19018G27KT 10SM FEW017 SCT023 BKN037 18/14 A2947 RMK AO2 PK WND 18027/1946 SLP977 T01780139

More Conditions Fewer Conditions

Pressure 29.47 in
Visibility 10.0 miles
Clouds Few 1700 ft
Scattered Clouds 2300 ft
Mostly Cloudy 3700 ft
Dew Point 56 °F
Humidity 93%
Rainfall 0.38 in
Snow Depth Not available.
UV 0 out of 12
Pollen .10 out of 12
Air Quality Not available.
Flu Activity Not available.
METAR KLEB 241953Z 19018G27KT 10SM FEW017 SCT023 BKN037 18/14 A2947 RMK AO2 PK WND 18027/1946 SLP977 T01780139

More Conditions Fewer Conditions

10-Day Weather Forecast

Almanac

Astronomy

Nov. 24, 2014 Rise Set
Actual Time
Civil Twilight
Nautical Twilight
Astronomical Twilight
Moon
Length of Visible Light
Length of Day
Tomorrow will be .
, % of the Moon is Illuminated

Today's Extremes

State Highs State Lows

Community

WunderPhotos

Upload Photos

1,773,410 photos uploaded!

WunderBlogs® & News

Nearby

Air Quality

  Air Quality AQ Index Pollutant
Not available.

Snow Depth

Station Depth Elevation

Earthquake Activity

City Distance Mag. Time & Date
Minimum magnitude displayed is 2.5.

Coastal Water Temperatures

Place Temperature

Nearby Weather Stations